Terminal Aerodrome Forecast
Issued by NWS Shreveport, LA

Home | Current Version | Previous Version | Text Only | Print | Product List | Glossary On
Versions: 1 2 3 4 5 6 7 8 9 10 11 12 13 14
000
FTUS44 KSHV 020500
TAFGGG
TAF
KGGG 020529Z 0206/0306 03004KT 6SM BR SCT008 BKN015
      TEMPO 0206/0209 5SM BR BKN008
     FM020900 02003KT 5SM BR BKN008 OVC015
     FM021600 03007KT P6SM OVC013
     FM022000 05008KT P6SM BKN023
     FM030100 06003KT P6SM BKN025=

USA.gov is the U.S. government's official web portal to all federal, state and local government web resources and services.